Time;durP1;ratioP1;P1;durP2;ratioP2;P2;SDS_P1;SDS_P2;PMS_P1;PMS_P2;Temp;Humidity;BMP_temperature;BMP_pressure;BME280_temperature;BME280_humidity;BME280_pressure;Samples;Min_cycle;Max_cycle;Signal;HPM_P1;HPM_P2
2022/11/05 00:31:18;;;;;;;18.57;10.97;;;;;;;9.65;80.63;99249.13;30617693;28;96764;-68
2022/11/05 00:46:19;;;;;;;18.67;11.38;;;;;;;9.57;80.95;99262.56;30617564;28;96705;-69
2022/11/05 01:01:19;;;;;;;14.68;9.70;;;;;;;9.52;80.54;99285.41;30616853;28;97033;-69
2022/11/05 01:16:19;;;;;;;4.18;2.15;;;;;;;9.15;80.57;99320.66;30615955;28;96703;-68
2022/11/05 01:31:20;;;;;;;3.78;2.22;;;;;;;8.74;80.51;99323.72;30613701;28;96671;-68
2022/11/05 01:46:37;;;;;;;3.83;2.33;;;;;;;8.55;80.94;99334.84;30612676;28;96687;-68
2022/11/05 02:01:37;;;;;;;3.97;2.70;;;;;;;8.48;80.95;99352.50;30611891;28;96719;-69
2022/11/05 02:17:00;;;;;;;6.03;3.00;;;;;;;8.45;81.41;99358.97;30610838;28;96717;-68
2022/11/05 02:32:19;;;;;;;4.30;2.80;;;;;;;8.43;81.54;99398.09;30611617;28;97303;-68
2022/11/05 02:48:06;;;;;;;4.97;2.70;;;;;;;8.31;81.28;99437.50;30628959;28;97486;-68
2022/11/05 03:03:35;;;;;;;2.77;1.90;;;;;;;8.39;81.93;99447.22;30629192;28;96639;-68
2022/11/05 03:18:45;;;;;;;5.30;2.17;;;;;;;8.36;81.82;99477.59;30627226;28;96815;-68
2022/11/05 03:33:47;;;;;;;2.07;1.47;;;;;;;8.31;81.80;99517.13;30625527;28;96773;-68
2022/11/05 03:48:51;;;;;;;2.47;1.43;;;;;;;8.24;81.84;99542.66;30623429;28;96618;-68
2022/11/05 04:03:52;;;;;;;4.00;1.53;;;;;;;8.27;82.16;99563.56;30621592;28;96777;-68
2022/11/05 04:18:52;;;;;;;3.85;1.80;;;;;;;8.29;82.04;99598.72;30620386;28;96747;-68
2022/11/05 04:33:52;;;;;;;2.92;1.70;;;;;;;8.28;82.37;99615.63;30617559;28;96683;-69
2022/11/05 04:48:53;;;;;;;4.10;1.90;;;;;;;8.28;81.97;99605.00;30615345;28;96831;-68
2022/11/05 05:03:54;;;;;;;2.95;1.88;;;;;;;8.25;82.45;99619.44;30614270;28;97146;-68
2022/11/05 05:18:54;;;;;;;2.88;1.92;;;;;;;8.22;82.09;99645.50;30613747;28;97013;-69
2022/11/05 05:33:55;;;;;;;4.05;2.55;;;;;;;8.19;82.59;99643.16;30612939;28;97098;-68
2022/11/05 05:48:55;;;;;;;5.38;2.50;;;;;;;8.24;82.71;99662.06;30610849;28;97447;-69
2022/11/05 06:03:55;;;;;;;6.88;2.80;;;;;;;8.28;82.46;99695.22;30609354;28;96653;-68
2022/11/05 06:18:56;;;;;;;4.90;3.08;;;;;;;8.36;82.33;99736.88;30627683;28;96680;-68
2022/11/05 06:33:56;;;;;;;4.60;3.22;;;;;;;8.50;82.44;99764.59;30627741;28;97169;-68
2022/11/05 06:48:56;;;;;;;4.93;3.22;;;;;;;8.60;82.29;99787.31;30627558;28;96837;-69
2022/11/05 07:03:57;;;;;;;4.32;2.95;;;;;;;8.65;82.15;99829.28;30624996;28;96988;-69
2022/11/05 07:18:57;;;;;;;4.88;2.65;;;;;;;8.72;82.02;99843.59;30622763;28;97322;-69
2022/11/05 07:33:58;;;;;;;4.55;2.22;;;;;;;8.79;81.67;99865.81;30622324;28;96826;-68
2022/11/05 07:48:58;;;;;;;3.28;2.30;;;;;;;8.94;81.61;99899.69;30620923;28;96901;-69
2022/11/05 08:03:59;;;;;;;6.00;3.63;;;;;;;9.25;81.59;99914.94;30620396;28;96685;-69
2022/11/05 08:18:59;;;;;;;3.92;2.53;;;;;;;9.55;81.10;99915.22;30617303;28;97326;-69
2022/11/05 08:33:59;;;;;;;3.15;2.10;;;;;;;9.78;80.61;99942.72;30618006;28;97549;-68
2022/11/05 08:49:00;;;;;;;3.95;2.38;;;;;;;9.99;79.91;99973.25;30614207;28;96712;-69
2022/11/05 09:04:00;;;;;;;3.45;2.17;;;;;;;10.16;79.57;99990.81;30613227;28;96559;-69
2022/11/05 09:19:03;;;;;;;3.30;1.90;;;;;;;10.70;79.50;100015.06;30611818;28;96726;-69
2022/11/05 09:34:03;;;;;;;3.92;2.03;;;;;;;10.98;78.55;100044.72;30611315;28;96630;-68
2022/11/05 09:49:11;;;;;;;3.23;1.43;;;;;;;11.13;77.37;100048.28;30608323;28;97393;-70
2022/11/05 10:04:25;;;;;;;3.80;1.30;;;;;;;11.42;76.44;100044.06;30609013;28;96778;-69
2022/11/05 10:19:42;;;;;;;4.00;1.50;;;;;;;11.60;75.71;100072.28;30607875;28;99186;-68
2022/11/05 10:34:43;;;;;;;4.67;1.40;;;;;;;11.65;75.14;100064.56;30606791;28;96812;-68
2022/11/05 10:49:59;;;;;;;4.07;1.88;;;;;;;11.94;74.12;100077.16;30604762;28;97121;-68
2022/11/05 11:04:59;;;;;;;3.60;2.30;;;;;;;12.67;73.24;100085.38;30623808;28;96763;-68
2022/11/05 11:20:19;;;;;;;6.95;1.77;;;;;;;13.45;71.17;100095.50;30624307;28;97197;-68
2022/11/05 11:35:23;;;;;;;3.70;2.20;;;;;;;13.40;70.25;100121.19;30623186;28;97701;-68
2022/11/05 11:50:32;;;;;;;3.37;2.10;;;;;;;12.66;69.95;100112.28;30620166;28;97459;-69
2022/11/05 12:05:36;;;;;;;4.67;2.40;;;;;;;12.77;69.34;100143.06;30619205;28;96758;-69
2022/11/05 12:20:56;;;;;;;7.13;2.37;;;;;;;13.00;68.99;100142.94;30616763;28;97049;-69
2022/11/05 12:36:14;;;;;;;8.10;1.93;;;;;;;14.13;66.70;100164.63;30616537;28;96768;-69
2022/11/05 12:51:55;;;;;;;5.17;1.30;;;;;;;21.92;54.28;100169.94;30616350;28;97488;-69
2022/11/05 13:07:00;;;;;;;4.40;1.70;;;;;;;23.78;48.49;100175.03;30615218;28;97570;-69
2022/11/05 13:22:30;;;;;;;5.37;1.60;;;;;;;27.08;39.19;100178.53;30611059;28;97122;-69
2022/11/05 13:53:12;;;;;;;4.93;1.53;;;;;;;23.26;35.48;100223.44;30609373;28;97118;-69
2022/11/05 14:08:18;;;;;;;4.80;1.20;;;;;;;23.64;34.12;100240.72;30609754;28;97505;-69
2022/11/05 14:23:22;;;;;;;4.97;1.50;;;;;;;22.26;34.99;100254.03;30607379;28;96764;-70
2022/11/05 14:38:27;;;;;;;5.13;1.47;;;;;;;19.31;38.41;100273.88;30622615;28;97547;-70
2022/11/05 14:53:27;;;;;;;9.10;2.90;;;;;;;17.86;40.63;100281.91;30626207;28;97016;-69
2022/11/05 15:08:36;;;;;;;11.82;2.72;;;;;;;15.03;44.69;100308.84;30626258;28;96802;-69
2022/11/05 15:23:45;;;;;;;6.90;2.17;;;;;;;12.82;48.95;100309.91;30623706;28;96799;-68
2022/11/05 15:38:45;;;;;;;9.80;3.03;;;;;;;11.37;51.80;100321.16;30621144;28;97273;-69
2022/11/05 15:53:46;;;;;;;11.77;3.67;;;;;;;10.48;54.88;100340.63;30621102;28;96877;-70
2022/11/05 16:08:48;;;;;;;13.57;4.90;;;;;;;9.78;57.05;100357.75;30618796;28;97057;-70
2022/11/05 16:23:48;;;;;;;13.80;5.30;;;;;;;9.32;58.88;100371.34;30617986;28;96804;-69
2022/11/05 16:38:49;;;;;;;16.65;5.97;;;;;;;8.76;60.72;100376.13;30616826;28;97241;-69
2022/11/05 16:53:49;;;;;;;12.23;5.72;;;;;;;8.46;62.52;100391.47;30614803;28;97531;-68
2022/11/05 17:08:49;;;;;;;12.55;6.28;;;;;;;8.18;63.51;100408.41;30614266;28;96809;-69
2022/11/05 17:23:50;;;;;;;16.40;6.68;;;;;;;7.94;64.83;100425.69;30613624;28;97122;-68
2022/11/05 17:38:51;;;;;;;12.55;6.22;;;;;;;7.62;65.63;100426.94;30611224;28;97566;-69
2022/11/05 17:53:51;;;;;;;17.23;8.37;;;;;;;7.44;67.35;100438.31;30610658;28;96753;-68
2022/11/05 18:08:52;;;;;;;12.35;7.38;;;;;;;7.26;67.53;100464.72;30619627;28;96926;-70
2022/11/05 18:23:52;;;;;;;17.30;8.27;;;;;;;7.20;68.90;100472.38;30628937;28;96784;-69
2022/11/05 18:38:53;;;;;;;19.85;9.05;;;;;;;7.03;69.13;100481.91;30627546;28;96874;-69
2022/11/05 18:53:54;;;;;;;18.15;6.88;;;;;;;6.84;70.08;100506.56;30625368;28;96884;-70
2022/11/05 19:08:55;;;;;;;21.00;8.50;;;;;;;6.78;70.62;100516.72;30624414;28;96739;-70
2022/11/05 19:24:00;;;;;;;17.73;8.88;;;;;;;6.57;70.49;100535.34;30621198;28;97359;-70
2022/11/05 19:39:05;;;;;;;21.47;10.53;;;;;;;6.37;71.76;100558.28;30621298;28;97239;-69
2022/11/05 19:54:06;;;;;;;26.23;10.93;;;;;;;6.25;72.53;100570.75;30620707;28;96833;-69
2022/11/05 20:09:10;;;;;;;27.50;12.57;;;;;;;5.98;72.83;100568.69;30618574;28;97369;-69
2022/11/05 20:24:13;;;;;;;27.83;13.10;;;;;;;5.62;73.20;100569.97;30616275;28;97729;-69
2022/11/05 20:39:13;;;;;;;27.73;12.37;;;;;;;5.23;74.12;100573.97;30619734;28;97810;-71
2022/11/05 20:54:14;;;;;;;24.10;12.77;;;;;;;5.05;74.85;100594.81;30613828;28;97474;-69
2022/11/05 21:09:14;;;;;;;29.20;13.60;;;;;;;4.81;75.39;100602.06;30613447;28;96811;-70
2022/11/05 21:24:14;;;;;;;30.08;15.20;;;;;;;4.67;76.44;100590.81;30611972;28;97095;-68
2022/11/05 21:39:15;;;;;;;31.45;14.35;;;;;;;4.58;76.69;100596.84;30608767;28;97541;-69
2022/11/05 22:09:35;;;;;;;19.80;12.10;;;;;;;4.47;77.22;100602.97;30608272;28;96655;-68
2022/11/05 22:24:36;;;;;;;28.13;12.75;;;;;;;4.40;77.47;100605.25;30608705;28;97044;-68
2022/11/05 22:39:37;;;;;;;27.80;14.05;;;;;;;4.24;78.02;100610.03;30607355;28;97220;-69
2022/11/05 22:54:37;;;;;;;32.58;12.68;;;;;;;4.12;78.41;100616.25;30618025;28;97391;-68
2022/11/05 23:24:56;;;;;;;28.73;14.25;;;;;;;3.83;79.39;100614.88;30625898;28;97089;-70
2022/11/05 23:39:57;;;;;;;25.15;11.88;;;;;;;3.71;79.24;100619.25;30624766;28;96792;-68
2022/11/05 23:54:57;;;;;;;23.42;12.23;;;;;;;3.55;79.56;100626.63;30624109;28;97478;-68
